sensor_id;sensor_type;location;lat;lon;timestamp;P1;durP1;ratioP1;P2;durP2;ratioP2
31836;SDS011;18401;49.344;6.240;2023-07-16T00:00:10;2.92;;;0.95;;
31836;SDS011;18401;49.344;6.240;2023-07-16T00:02:37;3.35;;;1.70;;
31836;SDS011;18401;49.344;6.240;2023-07-16T00:05:03;2.95;;;1.42;;
31836;SDS011;18401;49.344;6.240;2023-07-16T00:07:31;1.38;;;1.15;;
31836;SDS011;18401;49.344;6.240;2023-07-16T00:09:57;2.97;;;1.00;;
31836;SDS011;18401;49.344;6.240;2023-07-16T00:12:22;6.93;;;1.35;;
31836;SDS011;18401;49.344;6.240;2023-07-16T00:14:48;2.72;;;1.17;;
31836;SDS011;18401;49.344;6.240;2023-07-16T00:17:13;2.05;;;1.05;;
31836;SDS011;18401;49.344;6.240;2023-07-16T00:19:39;4.53;;;0.90;;
31836;SDS011;18401;49.344;6.240;2023-07-16T00:22:05;1.27;;;0.80;;
31836;SDS011;18401;49.344;6.240;2023-07-16T00:24:31;5.05;;;1.40;;
31836;SDS011;18401;49.344;6.240;2023-07-16T00:26:56;6.10;;;1.33;;
31836;SDS011;18401;49.344;6.240;2023-07-16T00:29:22;1.05;;;0.80;;
31836;SDS011;18401;49.344;6.240;2023-07-16T00:31:48;2.97;;;1.45;;
31836;SDS011;18401;49.344;6.240;2023-07-16T00:34:14;0.82;;;0.82;;
31836;SDS011;18401;49.344;6.240;2023-07-16T00:36:39;11.38;;;1.60;;
31836;SDS011;18401;49.344;6.240;2023-07-16T00:39:06;9.40;;;1.15;;
31836;SDS011;18401;49.344;6.240;2023-07-16T00:41:32;4.35;;;1.08;;
31836;SDS011;18401;49.344;6.240;2023-07-16T00:43:57;5.82;;;1.00;;
31836;SDS011;18401;49.344;6.240;2023-07-16T00:46:23;2.58;;;1.27;;
31836;SDS011;18401;49.344;6.240;2023-07-16T00:48:49;1.25;;;0.80;;
31836;SDS011;18401;49.344;6.240;2023-07-16T00:51:16;5.93;;;0.95;;
31836;SDS011;18401;49.344;6.240;2023-07-16T00:53:43;2.22;;;1.38;;
31836;SDS011;18401;49.344;6.240;2023-07-16T00:56:09;0.90;;;0.90;;
31836;SDS011;18401;49.344;6.240;2023-07-16T00:58:36;5.28;;;1.15;;
31836;SDS011;18401;49.344;6.240;2023-07-16T01:01:01;1.23;;;0.90;;
31836;SDS011;18401;49.344;6.240;2023-07-16T01:03:27;1.17;;;0.93;;
31836;SDS011;18401;49.344;6.240;2023-07-16T01:11:14;5.57;;;1.40;;
31836;SDS011;18401;49.344;6.240;2023-07-16T01:13:40;7.22;;;1.42;;
31836;SDS011;18401;49.344;6.240;2023-07-16T01:16:17;8.70;;;0.95;;
31836;SDS011;18401;49.344;6.240;2023-07-16T01:18:44;2.45;;;1.02;;
31836;SDS011;18401;49.344;6.240;2023-07-16T01:21:10;6.40;;;1.15;;
31836;SDS011;18401;49.344;6.240;2023-07-16T01:26:35;2.72;;;1.08;;
31836;SDS011;18401;49.344;6.240;2023-07-16T01:31:57;6.45;;;1.65;;
31836;SDS011;18401;49.344;6.240;2023-07-16T01:34:26;1.08;;;0.90;;
31836;SDS011;18401;49.344;6.240;2023-07-16T01:36:55;5.55;;;1.42;;
31836;SDS011;18401;49.344;6.240;2023-07-16T01:39:22;2.78;;;1.08;;
31836;SDS011;18401;49.344;6.240;2023-07-16T01:41:48;6.68;;;0.90;;
31836;SDS011;18401;49.344;6.240;2023-07-16T01:44:14;5.40;;;1.38;;
31836;SDS011;18401;49.344;6.240;2023-07-16T01:46:39;6.28;;;1.42;;
31836;SDS011;18401;49.344;6.240;2023-07-16T01:49:05;7.25;;;1.40;;
31836;SDS011;18401;49.344;6.240;2023-07-16T01:51:30;3.50;;;1.20;;
31836;SDS011;18401;49.344;6.240;2023-07-16T01:53:56;8.25;;;1.00;;
31836;SDS011;18401;49.344;6.240;2023-07-16T01:56:22;4.90;;;1.02;;
31836;SDS011;18401;49.344;6.240;2023-07-16T01:58:48;12.30;;;1.55;;
31836;SDS011;18401;49.344;6.240;2023-07-16T02:01:14;1.35;;;1.00;;
31836;SDS011;18401;49.344;6.240;2023-07-16T02:03:39;1.73;;;1.30;;
31836;SDS011;18401;49.344;6.240;2023-07-16T02:06:05;0.93;;;0.85;;
31836;SDS011;18401;49.344;6.240;2023-07-16T02:08:31;5.57;;;1.35;;
31836;SDS011;18401;49.344;6.240;2023-07-16T02:10:57;3.85;;;1.00;;
31836;SDS011;18401;49.344;6.240;2023-07-16T02:13:22;1.60;;;1.38;;
31836;SDS011;18401;49.344;6.240;2023-07-16T02:15:48;8.50;;;1.05;;
31836;SDS011;18401;49.344;6.240;2023-07-16T02:18:14;4.60;;;1.15;;
31836;SDS011;18401;49.344;6.240;2023-07-16T02:20:39;6.82;;;1.42;;
31836;SDS011;18401;49.344;6.240;2023-07-16T02:23:05;9.13;;;1.65;;
31836;SDS011;18401;49.344;6.240;2023-07-16T02:25:31;8.50;;;1.05;;
31836;SDS011;18401;49.344;6.240;2023-07-16T02:27:58;9.45;;;1.85;;
31836;SDS011;18401;49.344;6.240;2023-07-16T02:30:23;8.82;;;1.38;;
31836;SDS011;18401;49.344;6.240;2023-07-16T02:32:49;1.85;;;0.98;;
31836;SDS011;18401;49.344;6.240;2023-07-16T02:35:14;5.63;;;1.55;;
31836;SDS011;18401;49.344;6.240;2023-07-16T02:37:40;3.85;;;1.08;;
31836;SDS011;18401;49.344;6.240;2023-07-16T02:40:06;4.70;;;1.52;;
31836;SDS011;18401;49.344;6.240;2023-07-16T02:42:32;7.03;;;1.40;;
31836;SDS011;18401;49.344;6.240;2023-07-16T02:44:58;5.68;;;1.33;;
31836;SDS011;18401;49.344;6.240;2023-07-16T02:47:24;2.38;;;0.88;;
31836;SDS011;18401;49.344;6.240;2023-07-16T02:49:52;5.88;;;2.15;;
31836;SDS011;18401;49.344;6.240;2023-07-16T02:52:18;6.85;;;1.17;;
31836;SDS011;18401;49.344;6.240;2023-07-16T02:54:44;10.27;;;1.38;;
31836;SDS011;18401;49.344;6.240;2023-07-16T02:57:10;4.38;;;1.23;;
31836;SDS011;18401;49.344;6.240;2023-07-16T02:59:35;6.30;;;1.13;;
31836;SDS011;18401;49.344;6.240;2023-07-16T03:02:01;6.45;;;1.10;;
31836;SDS011;18401;49.344;6.240;2023-07-16T03:04:27;7.45;;;1.55;;
31836;SDS011;18401;49.344;6.240;2023-07-16T03:06:52;3.38;;;1.17;;
31836;SDS011;18401;49.344;6.240;2023-07-16T03:09:18;3.85;;;0.77;;
31836;SDS011;18401;49.344;6.240;2023-07-16T03:11:44;3.78;;;1.33;;
31836;SDS011;18401;49.344;6.240;2023-07-16T03:14:09;1.80;;;1.13;;
31836;SDS011;18401;49.344;6.240;2023-07-16T03:16:35;13.57;;;2.13;;
31836;SDS011;18401;49.344;6.240;2023-07-16T03:19:01;10.45;;;1.50;;
31836;SDS011;18401;49.344;6.240;2023-07-16T03:21:27;3.60;;;1.45;;
31836;SDS011;18401;49.344;6.240;2023-07-16T03:23:52;10.18;;;1.55;;
31836;SDS011;18401;49.344;6.240;2023-07-16T03:26:18;9.35;;;1.92;;
31836;SDS011;18401;49.344;6.240;2023-07-16T03:28:43;5.80;;;1.30;;
31836;SDS011;18401;49.344;6.240;2023-07-16T03:31:09;7.55;;;1.48;;
31836;SDS011;18401;49.344;6.240;2023-07-16T03:33:35;4.82;;;1.55;;
31836;SDS011;18401;49.344;6.240;2023-07-16T03:36:00;4.53;;;1.35;;
31836;SDS011;18401;49.344;6.240;2023-07-16T03:38:26;3.05;;;0.98;;
31836;SDS011;18401;49.344;6.240;2023-07-16T03:40:52;15.18;;;1.45;;
31836;SDS011;18401;49.344;6.240;2023-07-16T03:43:17;13.88;;;1.35;;
31836;SDS011;18401;49.344;6.240;2023-07-16T03:45:43;10.43;;;1.40;;
31836;SDS011;18401;49.344;6.240;2023-07-16T03:48:09;2.60;;;1.00;;
31836;SDS011;18401;49.344;6.240;2023-07-16T03:50:34;4.63;;;1.35;;
31836;SDS011;18401;49.344;6.240;2023-07-16T03:53:01;4.82;;;1.40;;
31836;SDS011;18401;49.344;6.240;2023-07-16T03:55:28;5.18;;;1.00;;
31836;SDS011;18401;49.344;6.240;2023-07-16T03:57:54;8.25;;;1.27;;
31836;SDS011;18401;49.344;6.240;2023-07-16T04:00:20;10.80;;;1.50;;
31836;SDS011;18401;49.344;6.240;2023-07-16T04:02:46;9.90;;;1.30;;
31836;SDS011;18401;49.344;6.240;2023-07-16T04:05:12;8.77;;;1.25;;
31836;SDS011;18401;49.344;6.240;2023-07-16T04:07:38;4.70;;;1.00;;
31836;SDS011;18401;49.344;6.240;2023-07-16T04:10:04;8.00;;;1.55;;
31836;SDS011;18401;49.344;6.240;2023-07-16T04:12:30;7.75;;;1.73;;
31836;SDS011;18401;49.344;6.240;2023-07-16T04:14:56;7.32;;;0.95;;
31836;SDS011;18401;49.344;6.240;2023-07-16T04:17:23;8.27;;;1.25;;
31836;SDS011;18401;49.344;6.240;2023-07-16T04:19:49;7.75;;;1.85;;
31836;SDS011;18401;49.344;6.240;2023-07-16T04:22:14;1.30;;;1.02;;
31836;SDS011;18401;49.344;6.240;2023-07-16T04:24:40;7.88;;;1.33;;
31836;SDS011;18401;49.344;6.240;2023-07-16T04:27:06;6.47;;;1.58;;
31836;SDS011;18401;49.344;6.240;2023-07-16T04:29:31;1.48;;;1.00;;
31836;SDS011;18401;49.344;6.240;2023-07-16T04:31:57;6.88;;;1.83;;
31836;SDS011;18401;49.344;6.240;2023-07-16T04:34:23;1.98;;;0.88;;
31836;SDS011;18401;49.344;6.240;2023-07-16T04:36:48;7.18;;;1.10;;
31836;SDS011;18401;49.344;6.240;2023-07-16T04:39:14;6.18;;;1.35;;
31836;SDS011;18401;49.344;6.240;2023-07-16T04:41:40;7.95;;;1.35;;
31836;SDS011;18401;49.344;6.240;2023-07-16T04:44:05;7.78;;;1.70;;
31836;SDS011;18401;49.344;6.240;2023-07-16T04:46:31;6.18;;;1.75;;
31836;SDS011;18401;49.344;6.240;2023-07-16T04:48:57;9.82;;;1.35;;
31836;SDS011;18401;49.344;6.240;2023-07-16T04:51:23;3.05;;;1.10;;
31836;SDS011;18401;49.344;6.240;2023-07-16T04:53:49;6.60;;;1.30;;
31836;SDS011;18401;49.344;6.240;2023-07-16T04:56:15;4.10;;;1.20;;
31836;SDS011;18401;49.344;6.240;2023-07-16T04:58:41;7.25;;;1.48;;
31836;SDS011;18401;49.344;6.240;2023-07-16T05:01:07;5.55;;;1.67;;
31836;SDS011;18401;49.344;6.240;2023-07-16T05:03:33;3.80;;;1.15;;
31836;SDS011;18401;49.344;6.240;2023-07-16T05:05:59;6.03;;;1.45;;
31836;SDS011;18401;49.344;6.240;2023-07-16T05:08:25;3.92;;;1.35;;
31836;SDS011;18401;49.344;6.240;2023-07-16T05:10:51;8.90;;;1.02;;
31836;SDS011;18401;49.344;6.240;2023-07-16T05:13:16;5.88;;;0.98;;
31836;SDS011;18401;49.344;6.240;2023-07-16T05:15:45;2.28;;;1.23;;
31836;SDS011;18401;49.344;6.240;2023-07-16T05:18:11;1.30;;;0.80;;
31836;SDS011;18401;49.344;6.240;2023-07-16T05:20:37;2.85;;;0.88;;
31836;SDS011;18401;49.344;6.240;2023-07-16T05:23:02;22.85;;;1.30;;
31836;SDS011;18401;49.344;6.240;2023-07-16T05:25:28;9.43;;;1.58;;
31836;SDS011;18401;49.344;6.240;2023-07-16T05:27:54;11.15;;;1.48;;
31836;SDS011;18401;49.344;6.240;2023-07-16T05:30:20;1.67;;;0.60;;
31836;SDS011;18401;49.344;6.240;2023-07-16T05:32:45;1.60;;;0.47;;
31836;SDS011;18401;49.344;6.240;2023-07-16T05:35:11;8.77;;;1.35;;
31836;SDS011;18401;49.344;6.240;2023-07-16T05:37:37;9.10;;;1.38;;
31836;SDS011;18401;49.344;6.240;2023-07-16T05:40:03;1.00;;;0.95;;
31836;SDS011;18401;49.344;6.240;2023-07-16T05:42:29;3.53;;;0.82;;
31836;SDS011;18401;49.344;6.240;2023-07-16T05:44:55;4.40;;;0.80;;
31836;SDS011;18401;49.344;6.240;2023-07-16T05:47:20;1.83;;;1.00;;
31836;SDS011;18401;49.344;6.240;2023-07-16T05:49:46;1.65;;;0.82;;
31836;SDS011;18401;49.344;6.240;2023-07-16T05:52:12;3.47;;;0.65;;
31836;SDS011;18401;49.344;6.240;2023-07-16T05:54:37;10.85;;;1.10;;
31836;SDS011;18401;49.344;6.240;2023-07-16T05:57:03;3.30;;;0.85;;
31836;SDS011;18401;49.344;6.240;2023-07-16T05:59:29;8.07;;;0.47;;
31836;SDS011;18401;49.344;6.240;2023-07-16T06:01:55;2.00;;;0.73;;
31836;SDS011;18401;49.344;6.240;2023-07-16T06:04:23;3.63;;;1.17;;
31836;SDS011;18401;49.344;6.240;2023-07-16T06:06:48;10.23;;;1.02;;
31836;SDS011;18401;49.344;6.240;2023-07-16T06:09:14;5.05;;;0.88;;
31836;SDS011;18401;49.344;6.240;2023-07-16T06:11:39;1.27;;;0.70;;
31836;SDS011;18401;49.344;6.240;2023-07-16T06:14:05;5.38;;;1.02;;
31836;SDS011;18401;49.344;6.240;2023-07-16T06:16:31;10.15;;;0.95;;
31836;SDS011;18401;49.344;6.240;2023-07-16T06:18:56;3.40;;;1.15;;
31836;SDS011;18401;49.344;6.240;2023-07-16T06:21:22;8.13;;;1.35;;
31836;SDS011;18401;49.344;6.240;2023-07-16T06:23:47;3.33;;;0.75;;
31836;SDS011;18401;49.344;6.240;2023-07-16T06:26:13;1.15;;;0.73;;
31836;SDS011;18401;49.344;6.240;2023-07-16T06:28:39;3.90;;;2.22;;
31836;SDS011;18401;49.344;6.240;2023-07-16T06:31:04;7.15;;;1.45;;
31836;SDS011;18401;49.344;6.240;2023-07-16T06:33:30;3.08;;;1.05;;
31836;SDS011;18401;49.344;6.240;2023-07-16T06:35:56;5.03;;;1.08;;
31836;SDS011;18401;49.344;6.240;2023-07-16T06:38:21;2.10;;;0.90;;
31836;SDS011;18401;49.344;6.240;2023-07-16T06:40:47;5.20;;;1.13;;
31836;SDS011;18401;49.344;6.240;2023-07-16T06:43:14;2.30;;;1.10;;
31836;SDS011;18401;49.344;6.240;2023-07-16T06:45:40;5.70;;;0.88;;
31836;SDS011;18401;49.344;6.240;2023-07-16T06:48:06;2.60;;;1.23;;
31836;SDS011;18401;49.344;6.240;2023-07-16T06:50:32;4.30;;;1.60;;
31836;SDS011;18401;49.344;6.240;2023-07-16T06:52:57;7.95;;;1.50;;
31836;SDS011;18401;49.344;6.240;2023-07-16T06:55:23;12.57;;;1.77;;
31836;SDS011;18401;49.344;6.240;2023-07-16T06:57:49;3.30;;;1.00;;
31836;SDS011;18401;49.344;6.240;2023-07-16T07:00:14;2.35;;;1.65;;
31836;SDS011;18401;49.344;6.240;2023-07-16T07:02:40;1.48;;;0.85;;
31836;SDS011;18401;49.344;6.240;2023-07-16T07:05:07;3.25;;;2.00;;
31836;SDS011;18401;49.344;6.240;2023-07-16T07:07:32;4.25;;;1.25;;
31836;SDS011;18401;49.344;6.240;2023-07-16T07:09:58;9.25;;;1.95;;
31836;SDS011;18401;49.344;6.240;2023-07-16T07:12:24;7.57;;;1.98;;
31836;SDS011;18401;49.344;6.240;2023-07-16T07:14:49;6.43;;;1.65;;
31836;SDS011;18401;49.344;6.240;2023-07-16T07:17:15;5.05;;;1.75;;
31836;SDS011;18401;49.344;6.240;2023-07-16T07:19:41;6.85;;;1.88;;
31836;SDS011;18401;49.344;6.240;2023-07-16T07:22:07;2.75;;;1.67;;
31836;SDS011;18401;49.344;6.240;2023-07-16T07:24:33;4.40;;;1.20;;
31836;SDS011;18401;49.344;6.240;2023-07-16T07:26:59;8.98;;;3.28;;
31836;SDS011;18401;49.344;6.240;2023-07-16T07:29:24;4.72;;;1.77;;
31836;SDS011;18401;49.344;6.240;2023-07-16T07:31:50;2.22;;;1.25;;
31836;SDS011;18401;49.344;6.240;2023-07-16T07:34:17;2.78;;;1.23;;
31836;SDS011;18401;49.344;6.240;2023-07-16T07:36:42;5.15;;;1.70;;
31836;SDS011;18401;49.344;6.240;2023-07-16T07:39:08;5.00;;;1.73;;
31836;SDS011;18401;49.344;6.240;2023-07-16T07:41:34;2.42;;;1.70;;
31836;SDS011;18401;49.344;6.240;2023-07-16T07:43:59;3.28;;;1.70;;
31836;SDS011;18401;49.344;6.240;2023-07-16T07:46:25;8.15;;;2.85;;
31836;SDS011;18401;49.344;6.240;2023-07-16T07:48:50;5.13;;;1.92;;
31836;SDS011;18401;49.344;6.240;2023-07-16T07:51:16;5.45;;;2.20;;
31836;SDS011;18401;49.344;6.240;2023-07-16T07:53:42;9.93;;;2.25;;
31836;SDS011;18401;49.344;6.240;2023-07-16T07:56:07;6.63;;;2.40;;
31836;SDS011;18401;49.344;6.240;2023-07-16T07:58:33;13.02;;;2.80;;
31836;SDS011;18401;49.344;6.240;2023-07-16T08:01:05;10.43;;;2.65;;
31836;SDS011;18401;49.344;6.240;2023-07-16T08:03:32;6.05;;;1.95;;
31836;SDS011;18401;49.344;6.240;2023-07-16T08:05:57;8.45;;;2.05;;
31836;SDS011;18401;49.344;6.240;2023-07-16T08:08:23;6.07;;;1.60;;
31836;SDS011;18401;49.344;6.240;2023-07-16T08:10:49;5.85;;;1.67;;
31836;SDS011;18401;49.344;6.240;2023-07-16T08:13:14;4.50;;;1.90;;
31836;SDS011;18401;49.344;6.240;2023-07-16T08:15:41;6.20;;;1.88;;
31836;SDS011;18401;49.344;6.240;2023-07-16T08:18:07;2.53;;;1.75;;
31836;SDS011;18401;49.344;6.240;2023-07-16T08:20:35;3.08;;;1.80;;
31836;SDS011;18401;49.344;6.240;2023-07-16T08:23:01;7.63;;;2.03;;
31836;SDS011;18401;49.344;6.240;2023-07-16T08:25:27;5.90;;;2.22;;
31836;SDS011;18401;49.344;6.240;2023-07-16T08:27:52;7.10;;;2.00;;
31836;SDS011;18401;49.344;6.240;2023-07-16T08:30:18;3.70;;;1.92;;
31836;SDS011;18401;49.344;6.240;2023-07-16T08:32:44;6.47;;;1.85;;
31836;SDS011;18401;49.344;6.240;2023-07-16T08:35:09;5.22;;;2.22;;
31836;SDS011;18401;49.344;6.240;2023-07-16T08:37:41;9.10;;;2.25;;
31836;SDS011;18401;49.344;6.240;2023-07-16T08:40:11;5.28;;;2.13;;
31836;SDS011;18401;49.344;6.240;2023-07-16T08:42:38;7.45;;;3.30;;
31836;SDS011;18401;49.344;6.240;2023-07-16T08:45:09;9.02;;;2.70;;
31836;SDS011;18401;49.344;6.240;2023-07-16T08:47:35;3.85;;;2.45;;
31836;SDS011;18401;49.344;6.240;2023-07-16T08:50:02;6.10;;;2.17;;
31836;SDS011;18401;49.344;6.240;2023-07-16T08:52:28;7.93;;;2.40;;
31836;SDS011;18401;49.344;6.240;2023-07-16T08:54:54;4.40;;;2.20;;
31836;SDS011;18401;49.344;6.240;2023-07-16T08:57:20;5.43;;;2.75;;
31836;SDS011;18401;49.344;6.240;2023-07-16T08:59:50;5.53;;;2.60;;
31836;SDS011;18401;49.344;6.240;2023-07-16T09:02:19;4.85;;;2.92;;
31836;SDS011;18401;49.344;6.240;2023-07-16T09:04:48;5.07;;;1.90;;
31836;SDS011;18401;49.344;6.240;2023-07-16T09:07:16;12.90;;;2.67;;
31836;SDS011;18401;49.344;6.240;2023-07-16T09:09:42;6.30;;;2.75;;
31836;SDS011;18401;49.344;6.240;2023-07-16T09:12:13;7.68;;;3.05;;
31836;SDS011;18401;49.344;6.240;2023-07-16T09:14:43;4.93;;;2.60;;
31836;SDS011;18401;49.344;6.240;2023-07-16T09:17:11;7.47;;;2.53;;
31836;SDS011;18401;49.344;6.240;2023-07-16T09:19:37;6.30;;;2.28;;
31836;SDS011;18401;49.344;6.240;2023-07-16T09:22:03;10.70;;;3.28;;
31836;SDS011;18401;49.344;6.240;2023-07-16T09:24:28;12.57;;;3.72;;
31836;SDS011;18401;49.344;6.240;2023-07-16T09:26:54;13.40;;;2.65;;
31836;SDS011;18401;49.344;6.240;2023-07-16T09:29:24;18.77;;;3.45;;
31836;SDS011;18401;49.344;6.240;2023-07-16T09:34:32;7.53;;;2.33;;
31836;SDS011;18401;49.344;6.240;2023-07-16T09:36:59;7.88;;;2.50;;
31836;SDS011;18401;49.344;6.240;2023-07-16T09:39:26;7.57;;;2.80;;
31836;SDS011;18401;49.344;6.240;2023-07-16T09:41:52;5.05;;;2.53;;
31836;SDS011;18401;49.344;6.240;2023-07-16T09:44:18;6.97;;;2.15;;
31836;SDS011;18401;49.344;6.240;2023-07-16T09:46:46;5.25;;;2.40;;
31836;SDS011;18401;49.344;6.240;2023-07-16T09:49:12;7.65;;;2.33;;
31836;SDS011;18401;49.344;6.240;2023-07-16T09:51:40;8.63;;;2.58;;
31836;SDS011;18401;49.344;6.240;2023-07-16T09:54:07;10.23;;;2.33;;
31836;SDS011;18401;49.344;6.240;2023-07-16T09:56:41;3.88;;;2.17;;
31836;SDS011;18401;49.344;6.240;2023-07-16T09:59:13;5.53;;;2.17;;
31836;SDS011;18401;49.344;6.240;2023-07-16T10:01:42;4.32;;;1.90;;
31836;SDS011;18401;49.344;6.240;2023-07-16T10:04:18;10.75;;;2.40;;
31836;SDS011;18401;49.344;6.240;2023-07-16T10:06:54;6.45;;;2.25;;
31836;SDS011;18401;49.344;6.240;2023-07-16T10:12:21;7.47;;;2.47;;
31836;SDS011;18401;49.344;6.240;2023-07-16T10:14:52;8.50;;;2.50;;
31836;SDS011;18401;49.344;6.240;2023-07-16T10:17:22;5.93;;;2.65;;
31836;SDS011;18401;49.344;6.240;2023-07-16T10:19:50;4.88;;;2.63;;
31836;SDS011;18401;49.344;6.240;2023-07-16T10:22:19;8.55;;;2.28;;
31836;SDS011;18401;49.344;6.240;2023-07-16T10:27:47;7.93;;;2.15;;
31836;SDS011;18401;49.344;6.240;2023-07-16T10:30:14;4.13;;;2.10;;
31836;SDS011;18401;49.344;6.240;2023-07-16T10:32:40;6.10;;;2.15;;
31836;SDS011;18401;49.344;6.240;2023-07-16T10:35:06;5.07;;;2.80;;
31836;SDS011;18401;49.344;6.240;2023-07-16T10:37:35;5.22;;;2.45;;
31836;SDS011;18401;49.344;6.240;2023-07-16T10:40:02;2.28;;;1.90;;
31836;SDS011;18401;49.344;6.240;2023-07-16T10:42:29;7.55;;;2.20;;
31836;SDS011;18401;49.344;6.240;2023-07-16T10:44:59;982.58;;;52.90;;
31836;SDS011;18401;49.344;6.240;2023-07-16T10:47:33;1999.90;;;999.90;;
31836;SDS011;18401;49.344;6.240;2023-07-16T10:50:00;1999.90;;;999.90;;
31836;SDS011;18401;49.344;6.240;2023-07-16T10:52:28;1999.90;;;999.90;;
31836;SDS011;18401;49.344;6.240;2023-07-16T10:54:54;1999.90;;;999.90;;
31836;SDS011;18401;49.344;6.240;2023-07-16T10:57:20;1999.90;;;999.90;;
31836;SDS011;18401;49.344;6.240;2023-07-16T10:59:46;1999.90;;;999.90;;
31836;SDS011;18401;49.344;6.240;2023-07-16T11:02:14;1999.90;;;999.90;;
31836;SDS011;18401;49.344;6.240;2023-07-16T11:04:41;1999.90;;;999.90;;
31836;SDS011;18401;49.344;6.240;2023-07-16T11:07:09;1524.90;;;757.65;;
31836;SDS011;18401;49.344;6.240;2023-07-16T11:09:44;16.90;;;15.10;;
31836;SDS011;18401;49.344;6.240;2023-07-16T11:12:11;131.25;;;51.75;;
31836;SDS011;18401;49.344;6.240;2023-07-16T11:14:41;6.82;;;2.83;;
31836;SDS011;18401;49.344;6.240;2023-07-16T11:17:12;10.20;;;2.95;;
31836;SDS011;18401;49.344;6.240;2023-07-16T11:19:39;6.13;;;2.83;;
31836;SDS011;18401;49.344;6.240;2023-07-16T11:22:06;9.00;;;3.10;;
31836;SDS011;18401;49.344;6.240;2023-07-16T11:24:39;10.52;;;3.05;;
31836;SDS011;18401;49.344;6.240;2023-07-16T11:27:12;9.07;;;3.50;;
31836;SDS011;18401;49.344;6.240;2023-07-16T11:29:51;8.98;;;3.25;;
31836;SDS011;18401;49.344;6.240;2023-07-16T11:34:56;11.35;;;3.75;;
31836;SDS011;18401;49.344;6.240;2023-07-16T11:37:26;8.27;;;3.17;;
31836;SDS011;18401;49.344;6.240;2023-07-16T11:39:56;5.47;;;2.67;;
31836;SDS011;18401;49.344;6.240;2023-07-16T11:42:31;838.20;;;93.95;;
31836;SDS011;18401;49.344;6.240;2023-07-16T11:45:01;9.90;;;3.22;;
31836;SDS011;18401;49.344;6.240;2023-07-16T11:47:28;8.02;;;2.80;;
31836;SDS011;18401;49.344;6.240;2023-07-16T11:49:54;9.82;;;2.72;;
31836;SDS011;18401;49.344;6.240;2023-07-16T11:52:20;9.60;;;3.03;;
31836;SDS011;18401;49.344;6.240;2023-07-16T11:54:51;6.15;;;2.70;;
31836;SDS011;18401;49.344;6.240;2023-07-16T11:57:18;4.43;;;2.33;;
31836;SDS011;18401;49.344;6.240;2023-07-16T11:59:44;4.53;;;2.78;;
31836;SDS011;18401;49.344;6.240;2023-07-16T12:02:10;6.97;;;3.00;;
31836;SDS011;18401;49.344;6.240;2023-07-16T12:04:36;6.60;;;3.00;;
31836;SDS011;18401;49.344;6.240;2023-07-16T12:07:01;10.32;;;2.80;;
31836;SDS011;18401;49.344;6.240;2023-07-16T12:09:27;10.35;;;2.63;;
31836;SDS011;18401;49.344;6.240;2023-07-16T12:11:53;5.03;;;2.92;;
31836;SDS011;18401;49.344;6.240;2023-07-16T12:14:19;6.97;;;2.83;;
31836;SDS011;18401;49.344;6.240;2023-07-16T12:16:45;5.30;;;2.47;;
31836;SDS011;18401;49.344;6.240;2023-07-16T12:19:10;5.50;;;2.50;;
31836;SDS011;18401;49.344;6.240;2023-07-16T12:21:36;16.20;;;2.63;;
31836;SDS011;18401;49.344;6.240;2023-07-16T12:24:02;8.95;;;2.92;;
31836;SDS011;18401;49.344;6.240;2023-07-16T12:26:28;374.70;;;43.95;;
31836;SDS011;18401;49.344;6.240;2023-07-16T12:28:54;5.53;;;2.17;;
31836;SDS011;18401;49.344;6.240;2023-07-16T12:31:20;143.30;;;13.65;;
31836;SDS011;18401;49.344;6.240;2023-07-16T12:33:46;467.13;;;58.03;;
31836;SDS011;18401;49.344;6.240;2023-07-16T12:36:12;455.40;;;89.60;;
31836;SDS011;18401;49.344;6.240;2023-07-16T12:38:39;4.30;;;2.17;;
31836;SDS011;18401;49.344;6.240;2023-07-16T12:41:05;11.73;;;6.63;;
31836;SDS011;18401;49.344;6.240;2023-07-16T12:43:31;5.72;;;2.67;;
31836;SDS011;18401;49.344;6.240;2023-07-16T12:45:59;9.30;;;2.85;;
31836;SDS011;18401;49.344;6.240;2023-07-16T12:48:26;6.65;;;3.72;;
31836;SDS011;18401;49.344;6.240;2023-07-16T12:50:51;7.07;;;2.65;;
31836;SDS011;18401;49.344;6.240;2023-07-16T12:53:17;8.95;;;3.17;;
31836;SDS011;18401;49.344;6.240;2023-07-16T12:55:43;5.63;;;2.72;;
31836;SDS011;18401;49.344;6.240;2023-07-16T12:58:08;8.52;;;3.33;;
31836;SDS011;18401;49.344;6.240;2023-07-16T13:00:34;9.32;;;3.03;;
31836;SDS011;18401;49.344;6.240;2023-07-16T13:03:00;6.95;;;3.03;;
31836;SDS011;18401;49.344;6.240;2023-07-16T13:05:25;9.88;;;3.08;;
31836;SDS011;18401;49.344;6.240;2023-07-16T13:07:51;6.00;;;2.67;;
31836;SDS011;18401;49.344;6.240;2023-07-16T13:10:17;7.40;;;2.83;;
31836;SDS011;18401;49.344;6.240;2023-07-16T13:12:43;6.63;;;3.47;;
31836;SDS011;18401;49.344;6.240;2023-07-16T13:15:09;10.05;;;2.60;;
31836;SDS011;18401;49.344;6.240;2023-07-16T13:17:35;7.20;;;2.95;;
31836;SDS011;18401;49.344;6.240;2023-07-16T13:20:02;16.38;;;3.72;;
31836;SDS011;18401;49.344;6.240;2023-07-16T13:22:28;10.93;;;3.45;;
31836;SDS011;18401;49.344;6.240;2023-07-16T13:24:54;5.20;;;2.70;;
31836;SDS011;18401;49.344;6.240;2023-07-16T13:27:20;7.85;;;2.70;;
31836;SDS011;18401;49.344;6.240;2023-07-16T13:29:47;6.05;;;2.65;;
31836;SDS011;18401;49.344;6.240;2023-07-16T13:32:12;7.00;;;2.80;;
31836;SDS011;18401;49.344;6.240;2023-07-16T13:34:38;7.88;;;3.40;;
31836;SDS011;18401;49.344;6.240;2023-07-16T13:37:04;5.97;;;2.60;;
31836;SDS011;18401;49.344;6.240;2023-07-16T13:39:30;9.18;;;2.67;;
31836;SDS011;18401;49.344;6.240;2023-07-16T13:41:55;7.38;;;2.95;;
31836;SDS011;18401;49.344;6.240;2023-07-16T13:44:21;12.65;;;3.75;;
31836;SDS011;18401;49.344;6.240;2023-07-16T13:46:47;12.93;;;3.28;;
31836;SDS011;18401;49.344;6.240;2023-07-16T13:49:13;6.15;;;2.60;;
31836;SDS011;18401;49.344;6.240;2023-07-16T13:51:39;7.47;;;3.15;;
31836;SDS011;18401;49.344;6.240;2023-07-16T13:54:05;5.43;;;2.97;;
31836;SDS011;18401;49.344;6.240;2023-07-16T13:56:30;14.90;;;2.92;;
31836;SDS011;18401;49.344;6.240;2023-07-16T13:58:56;6.70;;;3.30;;
31836;SDS011;18401;49.344;6.240;2023-07-16T14:01:22;5.25;;;2.75;;
31836;SDS011;18401;49.344;6.240;2023-07-16T14:03:48;9.90;;;2.70;;
31836;SDS011;18401;49.344;6.240;2023-07-16T14:06:14;11.88;;;2.63;;
31836;SDS011;18401;49.344;6.240;2023-07-16T14:08:39;6.90;;;2.80;;
31836;SDS011;18401;49.344;6.240;2023-07-16T14:11:05;10.07;;;3.00;;
31836;SDS011;18401;49.344;6.240;2023-07-16T14:13:31;8.73;;;3.35;;
31836;SDS011;18401;49.344;6.240;2023-07-16T14:15:56;6.47;;;3.08;;
31836;SDS011;18401;49.344;6.240;2023-07-16T14:18:22;6.68;;;3.25;;
31836;SDS011;18401;49.344;6.240;2023-07-16T14:20:48;8.93;;;3.42;;
31836;SDS011;18401;49.344;6.240;2023-07-16T14:23:14;10.38;;;3.40;;
31836;SDS011;18401;49.344;6.240;2023-07-16T14:25:40;7.00;;;2.88;;
31836;SDS011;18401;49.344;6.240;2023-07-16T14:28:06;12.48;;;4.40;;
31836;SDS011;18401;49.344;6.240;2023-07-16T14:30:31;7.00;;;2.92;;
31836;SDS011;18401;49.344;6.240;2023-07-16T14:32:58;6.50;;;3.40;;
31836;SDS011;18401;49.344;6.240;2023-07-16T14:35:24;6.95;;;3.08;;
31836;SDS011;18401;49.344;6.240;2023-07-16T14:37:50;7.25;;;3.25;;
31836;SDS011;18401;49.344;6.240;2023-07-16T14:40:16;6.47;;;2.67;;
31836;SDS011;18401;49.344;6.240;2023-07-16T14:42:42;6.07;;;3.08;;
31836;SDS011;18401;49.344;6.240;2023-07-16T14:45:08;9.07;;;3.17;;
31836;SDS011;18401;49.344;6.240;2023-07-16T14:47:34;10.75;;;3.30;;
31836;SDS011;18401;49.344;6.240;2023-07-16T14:50:00;8.73;;;3.35;;
31836;SDS011;18401;49.344;6.240;2023-07-16T14:52:26;8.82;;;3.13;;
31836;SDS011;18401;49.344;6.240;2023-07-16T14:54:51;6.05;;;2.90;;
31836;SDS011;18401;49.344;6.240;2023-07-16T14:57:17;9.07;;;3.22;;
31836;SDS011;18401;49.344;6.240;2023-07-16T14:59:43;8.13;;;3.17;;